Time;durP1;ratioP1;P1;durP2;ratioP2;P2;SDS_P1;SDS_P2;PMS_P1;PMS_P2;Temp;Humidity;BMP_temperature;BMP_pressure;BME280_temperature;BME280_humidity;BME280_pressure;Samples;Min_cycle;Max_cycle;Signal;HPM_P1;HPM_P2
2023/05/15 00:01:00;;;;;;;49.60;10.53;;;20.10;58.90;;;;;;6210129;23;20168;-91
2023/05/15 00:03:29;;;;;;;34.50;9.33;;;20.10;58.90;;;;;;6209578;23;20234;-87
2023/05/15 00:05:56;;;;;;;43.40;9.70;;;20.10;58.90;;;;;;6209245;23;20168;-90
2023/05/15 00:08:23;;;;;;;49.37;10.40;;;20.10;58.90;;;;;;6209311;23;20739;-87
2023/05/15 00:10:50;;;;;;;38.03;9.80;;;20.00;58.90;;;;;;6209432;23;20222;-88
2023/05/15 00:13:18;;;;;;;36.70;9.23;;;20.00;58.90;;;;;;6210028;23;20177;-93
2023/05/15 00:15:45;;;;;;;35.27;9.27;;;20.00;58.90;;;;;;6210323;23;20505;-91
2023/05/15 00:18:12;;;;;;;31.63;9.03;;;20.00;58.90;;;;;;6209920;23;20238;-91
2023/05/15 00:20:40;;;;;;;39.83;9.87;;;20.00;58.90;;;;;;6209238;23;20584;-91
2023/05/15 00:23:07;;;;;;;53.50;11.50;;;19.90;58.80;;;;;;6208702;23;20203;-87
2023/05/15 00:25:34;;;;;;;31.93;9.87;;;19.90;58.80;;;;;;6209676;23;20164;-87
2023/05/15 00:28:01;;;;;;;39.60;10.57;;;19.90;58.80;;;;;;6208868;23;20288;-87
2023/05/15 00:30:28;;;;;;;33.40;9.50;;;19.90;58.80;;;;;;6209107;23;20658;-89
2023/05/15 00:32:55;;;;;;;30.83;9.50;;;19.90;58.80;;;;;;6210333;23;20192;-87
2023/05/15 00:35:23;;;;;;;41.03;10.47;;;19.90;58.80;;;;;;6208708;23;20173;-92
2023/05/15 00:37:51;;;;;;;32.20;9.30;;;19.80;58.80;;;;;;6208528;23;20167;-88
2023/05/15 00:40:21;;;;;;;53.03;11.50;;;19.80;58.80;;;;;;6208520;23;20283;-91
2023/05/15 00:42:49;;;;;;;36.13;10.83;;;19.80;58.80;;;;;;6208452;23;20199;-93
2023/05/15 00:45:21;;;;;;;42.13;10.73;;;19.80;58.80;;;;;;6209834;23;20247;-92
2023/05/15 00:47:50;;;;;;;33.00;10.60;;;19.80;58.80;;;;;;6208297;23;20211;-87
2023/05/15 00:50:17;;;;;;;37.53;11.23;;;19.70;58.70;;;;;;6208942;23;20567;-89
2023/05/15 00:52:45;;;;;;;34.23;10.37;;;19.70;58.80;;;;;;6207924;23;20164;-87
2023/05/15 00:55:15;;;;;;;53.93;12.23;;;19.70;58.80;;;;;;6208524;23;20224;-88
2023/05/15 00:57:43;;;;;;;58.40;13.33;;;19.70;59.30;;;;;;6209053;23;20176;-88
2023/05/15 01:00:14;;;;;;;49.33;12.83;;;19.70;58.80;;;;;;6208413;23;20199;-87
2023/05/15 01:02:41;;;;;;;67.43;13.80;;;19.70;58.80;;;;;;6208564;23;20179;-87
2023/05/15 01:05:09;;;;;;;44.03;11.60;;;19.70;58.80;;;;;;6208311;23;20165;-88
2023/05/15 01:07:48;;;;;;;39.33;12.23;;;19.70;58.80;;;;;;6207970;23;20211;-87
2023/05/15 01:10:17;;;;;;;48.87;12.97;;;19.60;58.70;;;;;;6208166;23;20590;-90
2023/05/15 01:12:47;;;;;;;33.17;11.83;;;19.60;58.80;;;;;;6207540;23;20216;-88
2023/05/15 01:15:14;;;;;;;43.00;12.93;;;19.60;58.80;;;;;;6207469;23;20200;-91
2023/05/15 01:17:41;;;;;;;32.67;12.13;;;19.60;58.80;;;;;;6208203;23;20231;-91
2023/05/15 01:20:10;;;;;;;35.17;13.07;;;19.60;58.80;;;;;;6208951;23;20251;-89
2023/05/15 01:22:53;;;;;;;30.73;12.40;;;19.60;58.80;;;;;;6208190;23;20174;-90
2023/05/15 01:25:53;;;;;;;37.07;13.27;;;19.60;58.80;;;;;;6208906;23;20218;-88
2023/05/15 01:28:26;;;;;;;34.87;13.10;;;19.60;58.80;;;;;;6209121;23;20172;-91
2023/05/15 01:30:56;;;;;;;47.43;13.60;;;19.50;58.80;;;;;;6182264;23;20858;-90
2023/05/15 01:33:28;;;;;;;31.40;12.30;;;19.50;58.70;;;;;;6182018;23;20182;-90
2023/05/15 01:36:01;;;;;;;32.73;12.77;;;19.50;58.70;;;;;;6208239;23;20200;-89
2023/05/15 01:38:34;;;;;;;47.17;14.43;;;19.50;58.70;;;;;;6211428;23;20199;-91
2023/05/15 01:41:06;;;;;;;44.37;14.33;;;19.50;58.70;;;;;;6219705;23;20188;-88
2023/05/15 01:43:37;;;;;;;44.17;14.20;;;19.50;58.80;;;;;;6213748;23;20519;-92
2023/05/15 01:46:05;;;;;;;44.87;15.43;;;19.50;58.70;;;;;;6210822;23;20235;-91
2023/05/15 01:48:36;;;;;;;48.53;15.07;;;19.50;58.80;;;;;;6213433;23;20247;-89
2023/05/15 01:51:06;;;;;;;38.10;13.87;;;19.40;58.70;;;;;;6212835;23;20223;-89
2023/05/15 01:53:34;;;;;;;38.93;14.23;;;19.40;58.70;;;;;;6211186;23;20199;-91
2023/05/15 01:56:03;;;;;;;35.37;14.37;;;19.40;59.30;;;;;;6209757;23;20245;-89
2023/05/15 01:58:32;;;;;;;36.10;13.57;;;19.40;58.80;;;;;;6209629;23;20244;-89
2023/05/15 02:01:01;;;;;;;39.80;15.13;;;19.40;58.80;;;;;;6211299;23;20158;-88
2023/05/15 02:03:29;;;;;;;32.83;15.20;;;19.40;58.80;;;;;;6210902;23;20203;-89
2023/05/15 02:05:56;;;;;;;38.30;14.97;;;19.40;58.80;;;;;;6210187;23;20172;-89
2023/05/15 02:08:27;;;;;;;43.77;16.27;;;19.40;58.80;;;;;;6212218;23;20195;-89
2023/05/15 02:10:55;;;;;;;38.67;15.30;;;19.40;58.80;;;;;;6210892;23;20204;-89
2023/05/15 02:13:24;;;;;;;42.13;15.20;;;19.40;59.40;;;;;;6210052;23;20226;-89
2023/05/15 02:15:51;;;;;;;49.13;16.57;;;19.40;58.80;;;;;;6210312;23;20207;-87
2023/05/15 02:18:21;;;;;;;54.37;18.07;;;19.40;58.80;;;;;;6209850;23;20202;-87
2023/05/15 02:20:48;;;;;;;43.63;16.83;;;19.40;58.80;;;;;;6210815;23;20199;-86
2023/05/15 02:23:15;;;;;;;43.40;16.40;;;19.30;58.80;;;;;;6210600;23;20700;-87
2023/05/15 02:25:48;;;;;;;39.13;15.53;;;19.40;58.80;;;;;;6210641;23;20172;-87
2023/05/15 02:28:23;;;;;;;58.03;17.27;;;19.30;58.70;;;;;;6210299;23;20247;-88
2023/05/15 02:30:58;;;;;;;50.93;16.57;;;19.30;58.80;;;;;;6210615;23;20227;-87
2023/05/15 02:33:34;;;;;;;52.83;16.83;;;19.30;58.70;;;;;;6210856;23;20202;-87
2023/05/15 02:36:05;;;;;;;48.13;16.97;;;19.30;58.70;;;;;;6209618;23;20491;-87
2023/05/15 02:38:38;;;;;;;55.93;17.73;;;19.30;58.80;;;;;;6209530;23;20199;-87
2023/05/15 02:41:07;;;;;;;49.13;18.20;;;19.30;58.80;;;;;;6209473;23;20260;-87
2023/05/15 02:43:36;;;;;;;71.47;19.40;;;19.30;58.80;;;;;;6209169;23;20574;-87
2023/05/15 02:46:06;;;;;;;61.07;17.70;;;19.30;58.80;;;;;;6209228;23;20164;-87
2023/05/15 02:48:37;;;;;;;57.93;19.13;;;19.30;58.80;;;;;;6210257;23;20267;-89
2023/05/15 02:51:05;;;;;;;51.43;18.40;;;19.30;58.80;;;;;;6208749;23;20190;-88
2023/05/15 02:53:33;;;;;;;56.50;18.30;;;19.30;58.80;;;;;;6210524;23;20171;-88
2023/05/15 02:56:01;;;;;;;45.13;20.07;;;19.30;58.80;;;;;;6208819;23;20168;-87
2023/05/15 02:58:28;;;;;;;49.57;19.67;;;19.30;58.80;;;;;;6209575;23;20165;-88
2023/05/15 03:00:55;;;;;;;49.60;19.20;;;19.20;58.70;;;;;;6209852;23;20684;-86
2023/05/15 03:03:22;;;;;;;54.60;21.47;;;19.30;58.80;;;;;;6210549;23;20165;-87
2023/05/15 03:05:51;;;;;;;59.60;22.07;;;19.20;58.70;;;;;;6210186;23;20197;-88
2023/05/15 03:08:19;;;;;;;49.37;20.03;;;19.30;58.80;;;;;;6210443;23;20753;-89
2023/05/15 03:10:46;;;;;;;56.80;20.87;;;19.30;58.80;;;;;;6209594;23;20629;-88
2023/05/15 03:13:12;;;;;;;51.43;20.87;;;19.20;58.70;;;;;;6210509;23;20199;-94
2023/05/15 03:15:39;;;;;;;68.27;23.63;;;19.20;58.70;;;;;;6209309;23;20212;-87
2023/05/15 03:18:07;;;;;;;61.67;21.73;;;19.30;58.80;;;;;;6209688;23;20251;-87
2023/05/15 03:20:34;;;;;;;76.67;22.77;;;19.30;58.80;;;;;;6210035;23;20200;-91
2023/05/15 03:23:02;;;;;;;57.40;21.77;;;19.20;58.70;;;;;;6210186;23;20165;-88
2023/05/15 03:25:29;;;;;;;80.07;22.60;;;19.20;58.70;;;;;;6209487;23;20222;-87
2023/05/15 03:27:56;;;;;;;58.93;22.23;;;19.20;58.70;;;;;;6210696;23;20199;-91
2023/05/15 03:30:23;;;;;;;71.67;24.77;;;19.20;58.90;;;;;;6209647;23;20648;-88
2023/05/15 03:32:50;;;;;;;60.53;22.67;;;19.20;58.80;;;;;;6209300;23;20200;-87
2023/05/15 03:35:17;;;;;;;85.20;24.80;;;19.20;58.80;;;;;;6210151;23;20169;-89
2023/05/15 03:37:44;;;;;;;72.83;24.97;;;19.20;58.80;;;;;;6209297;23;20691;-90
2023/05/15 03:40:14;;;;;;;57.40;23.13;;;19.20;58.80;;;;;;6209829;23;20592;-87
2023/05/15 03:42:41;;;;;;;65.90;25.23;;;19.20;58.80;;;;;;6210011;23;20188;-90
2023/05/15 03:45:09;;;;;;;61.17;24.40;;;19.20;58.80;;;;;;6210403;23;20256;-91
2023/05/15 03:47:36;;;;;;;75.60;24.83;;;19.20;58.80;;;;;;6209617;23;20168;-87
2023/05/15 03:50:03;;;;;;;65.40;24.33;;;19.20;58.80;;;;;;6210518;23;20267;-87
2023/05/15 03:52:30;;;;;;;64.27;25.10;;;19.20;58.80;;;;;;6210684;23;20168;-88
2023/05/15 03:54:58;;;;;;;61.87;24.47;;;19.20;59.40;;;;;;6183651;23;20182;-93
2023/05/15 03:57:26;;;;;;;60.17;24.23;;;19.20;58.80;;;;;;6158335;23;20547;-88
2023/05/15 03:59:53;;;;;;;78.13;28.03;;;19.20;58.80;;;;;;6208936;23;20202;-91
2023/05/15 04:02:20;;;;;;;63.53;25.87;;;19.10;58.80;;;;;;6209739;23;20207;-87
2023/05/15 04:04:47;;;;;;;66.13;25.30;;;19.10;58.80;;;;;;6209994;23;20549;-88
2023/05/15 04:07:14;;;;;;;67.83;26.27;;;19.20;58.90;;;;;;6208901;23;20179;-86
2023/05/15 04:09:41;;;;;;;70.47;25.63;;;19.20;58.90;;;;;;6209722;23;20549;-89
2023/05/15 04:12:11;;;;;;;59.47;25.03;;;19.10;58.80;;;;;;6210503;23;20212;-90
2023/05/15 04:14:39;;;;;;;66.33;25.97;;;19.10;58.80;;;;;;6210225;23;20164;-87
2023/05/15 04:17:06;;;;;;;75.30;25.83;;;19.10;58.80;;;;;;6210093;23;20200;-87
2023/05/15 04:19:33;;;;;;;58.70;25.63;;;19.10;58.80;;;;;;6215056;23;20203;-87
2023/05/15 04:22:00;;;;;;;70.40;25.83;;;19.10;58.80;;;;;;6211808;23;20465;-90
2023/05/15 04:24:27;;;;;;;82.67;27.27;;;19.10;58.80;;;;;;6213292;23;20172;-89
2023/05/15 04:26:54;;;;;;;64.40;26.67;;;19.10;58.80;;;;;;6225365;23;20175;-91
2023/05/15 04:29:22;;;;;;;70.20;27.63;;;19.10;58.90;;;;;;6223233;23;20175;-87
2023/05/15 04:31:50;;;;;;;81.50;27.60;;;19.10;59.40;;;;;;6218257;23;21052;-89
2023/05/15 04:34:17;;;;;;;82.10;28.67;;;19.10;58.80;;;;;;6216380;23;20180;-90
2023/05/15 04:36:44;;;;;;;59.13;25.20;;;19.10;58.90;;;;;;6213476;23;20176;-88
2023/05/15 04:39:11;;;;;;;70.03;25.83;;;19.10;58.90;;;;;;6211435;23;20179;-88
2023/05/15 04:41:38;;;;;;;65.40;25.80;;;19.10;58.80;;;;;;6213698;23;20706;-89
2023/05/15 04:44:05;;;;;;;68.53;26.43;;;19.10;58.90;;;;;;6212847;23;20934;-87
2023/05/15 04:46:33;;;;;;;49.93;23.73;;;19.10;58.90;;;;;;6210079;23;20682;-87
2023/05/15 04:49:01;;;;;;;57.20;25.77;;;19.10;58.90;;;;;;6209270;23;20258;-86
2023/05/15 04:51:28;;;;;;;64.60;26.40;;;19.10;58.90;;;;;;6210229;23;20275;-91
2023/05/15 04:53:55;;;;;;;62.67;26.87;;;19.10;58.90;;;;;;6210043;23;20203;-92
2023/05/15 04:56:22;;;;;;;79.13;26.33;;;19.10;58.90;;;;;;6209554;23;20291;-87
2023/05/15 04:58:49;;;;;;;57.07;23.53;;;19.10;58.90;;;;;;6209933;23;20203;-88
2023/05/15 05:01:16;;;;;;;63.80;26.20;;;19.10;58.90;;;;;;6209379;23;20204;-91
2023/05/15 05:03:44;;;;;;;56.90;24.50;;;19.00;58.80;;;;;;6208593;23;20207;-88
2023/05/15 05:06:12;;;;;;;60.23;26.13;;;19.00;58.80;;;;;;6209283;23;20251;-86
2023/05/15 05:08:39;;;;;;;72.03;25.87;;;19.00;58.80;;;;;;6210430;23;20199;-90
2023/05/15 05:11:09;;;;;;;55.37;25.37;;;19.00;58.80;;;;;;6209598;23;20286;-87
2023/05/15 05:13:36;;;;;;;98.47;27.30;;;19.00;58.80;;;;;;6210338;23;20191;-87
2023/05/15 05:16:04;;;;;;;64.07;26.00;;;19.00;58.80;;;;;;6210366;23;20232;-87
2023/05/15 05:18:31;;;;;;;62.47;24.83;;;19.00;58.80;;;;;;6213706;23;20274;-92
2023/05/15 05:21:01;;;;;;;52.27;23.77;;;19.00;58.80;;;;;;6213724;23;20168;-91
2023/05/15 05:23:30;;;;;;;118.27;29.27;;;19.00;58.80;;;;;;6208341;23;20165;-89
2023/05/15 05:26:00;;;;;;;55.57;24.33;;;19.00;58.80;;;;;;6211727;23;20176;-91
2023/05/15 05:28:27;;;;;;;50.70;24.30;;;19.00;59.40;;;;;;6210778;23;20167;-91
2023/05/15 05:30:54;;;;;;;60.30;25.03;;;19.00;58.90;;;;;;6211007;23;20690;-90
2023/05/15 05:33:21;;;;;;;62.60;25.57;;;19.00;58.80;;;;;;6209631;23;20629;-92
2023/05/15 05:35:48;;;;;;;70.63;25.60;;;19.00;58.90;;;;;;6212719;23;20161;-92
2023/05/15 05:38:15;;;;;;;65.77;24.30;;;19.00;58.90;;;;;;6213076;23;20188;-93
2023/05/15 05:40:43;;;;;;;64.13;25.57;;;19.00;58.90;;;;;;6212205;23;20192;-91
2023/05/15 05:43:11;;;;;;;68.83;26.27;;;19.00;58.90;;;;;;6209118;23;20211;-86
2023/05/15 05:45:38;;;;;;;80.37;25.83;;;19.00;58.90;;;;;;6209954;23;20436;-88
2023/05/15 05:48:06;;;;;;;72.93;26.00;;;19.00;58.90;;;;;;6210952;23;20193;-87
2023/05/15 05:50:32;;;;;;;74.30;26.90;;;19.00;58.90;;;;;;6211071;23;20572;-90
2023/05/15 05:53:00;;;;;;;61.60;24.93;;;19.00;58.90;;;;;;6211400;23;20179;-88
2023/05/15 05:55:26;;;;;;;65.93;25.63;;;18.90;58.80;;;;;;6211387;23;20243;-85
2023/05/15 05:57:55;;;;;;;66.17;25.33;;;19.00;58.90;;;;;;6210646;23;20251;-86
2023/05/15 06:00:22;;;;;;;57.17;24.07;;;19.00;58.90;;;;;;6210395;23;20168;-86
2023/05/15 06:02:50;;;;;;;62.87;25.23;;;19.00;58.90;;;;;;6210116;23;20168;-86
2023/05/15 06:05:17;;;;;;;59.80;24.23;;;18.90;58.90;;;;;;6211277;23;20218;-87
2023/05/15 06:07:44;;;;;;;58.03;24.00;;;18.90;58.90;;;;;;6210015;23;20165;-86
2023/05/15 06:10:12;;;;;;;52.07;22.53;;;19.00;59.00;;;;;;6210405;23;20203;-85
2023/05/15 06:12:39;;;;;;;59.03;24.53;;;19.00;58.90;;;;;;6210205;23;20164;-87
2023/05/15 06:15:08;;;;;;;60.47;23.70;;;19.00;59.50;;;;;;6210201;23;20753;-86
2023/05/15 06:17:35;;;;;;;65.53;24.40;;;18.90;58.90;;;;;;6206993;23;20553;-85
2023/05/15 06:20:04;;;;;;;79.50;24.77;;;18.90;58.90;;;;;;6208195;23;20248;-85
2023/05/15 06:22:32;;;;;;;86.17;25.47;;;19.00;59.00;;;;;;6209491;23;20172;-87
2023/05/15 06:24:59;;;;;;;84.20;26.13;;;19.00;59.00;;;;;;6210166;23;20179;-87
2023/05/15 06:27:26;;;;;;;68.17;23.17;;;19.00;59.00;;;;;;6211225;23;20211;-87
2023/05/15 06:29:53;;;;;;;80.93;25.13;;;18.90;58.90;;;;;;6211119;23;20168;-89
2023/05/15 06:32:21;;;;;;;93.80;29.73;;;19.00;59.00;;;;;;6210931;23;20270;-90
2023/05/15 06:34:48;;;;;;;79.57;28.70;;;19.00;59.00;;;;;;6211576;23;20168;-89
2023/05/15 06:37:15;;;;;;;69.53;26.60;;;18.90;59.00;;;;;;6210283;23;20247;-91
2023/05/15 06:39:42;;;;;;;75.43;26.63;;;19.00;59.00;;;;;;6210637;23;20636;-88
2023/05/15 06:42:09;;;;;;;65.10;24.70;;;18.90;58.90;;;;;;6211099;23;20227;-89
2023/05/15 06:44:36;;;;;;;52.63;23.13;;;18.90;58.90;;;;;;6211692;23;20225;-92
2023/05/15 06:47:03;;;;;;;58.30;22.80;;;18.90;58.80;;;;;;6211850;23;20176;-93
2023/05/15 06:49:32;;;;;;;71.33;25.40;;;18.90;58.90;;;;;;6212238;23;20434;-94
2023/05/15 06:51:59;;;;;;;61.20;25.00;;;18.90;58.80;;;;;;6211249;23;20671;-92
2023/05/15 06:54:26;;;;;;;56.57;24.17;;;18.90;58.90;;;;;;6211036;23;20174;-87
2023/05/15 06:56:53;;;;;;;57.63;23.97;;;18.80;58.80;;;;;;6211409;23;20171;-88
2023/05/15 06:59:20;;;;;;;63.63;24.77;;;18.80;58.90;;;;;;6211648;23;20267;-93
2023/05/15 07:01:47;;;;;;;64.37;22.83;;;18.80;58.90;;;;;;6209222;23;20654;-88
2023/05/15 07:04:14;;;;;;;61.77;23.17;;;18.80;58.90;;;;;;6211940;23;20210;-92
2023/05/15 07:06:43;;;;;;;55.27;22.33;;;18.80;58.90;;;;;;6211881;23;20165;-93
2023/05/15 07:09:10;;;;;;;68.33;23.70;;;18.80;58.90;;;;;;6210349;23;20621;-90
2023/05/15 07:11:37;;;;;;;84.60;24.67;;;18.80;58.90;;;;;;6210809;23;20719;-90
2023/05/15 07:14:06;;;;;;;60.83;23.80;;;18.90;59.10;;;;;;6211566;23;20165;-91
2023/05/15 07:16:33;;;;;;;65.27;23.47;;;18.80;59.00;;;;;;6210994;23;20254;-89
2023/05/15 07:19:01;;;;;;;57.90;22.93;;;18.80;59.00;;;;;;6211815;23;20168;-91
2023/05/15 07:21:28;;;;;;;63.40;24.30;;;18.90;59.10;;;;;;6211007;23;20706;-91
2023/05/15 07:23:56;;;;;;;59.27;22.33;;;18.80;59.00;;;;;;6209996;23;20176;-94
2023/05/15 07:26:23;;;;;;;61.03;23.00;;;18.80;59.00;;;;;;6211337;23;20544;-90
2023/05/15 07:28:50;;;;;;;64.57;22.43;;;18.80;59.00;;;;;;6210705;23;20887;-88
2023/05/15 07:31:17;;;;;;;61.80;23.53;;;18.80;59.00;;;;;;6209315;23;20237;-89
2023/05/15 07:33:44;;;;;;;62.37;22.57;;;18.80;59.00;;;;;;6209866;23;20172;-93
2023/05/15 07:36:11;;;;;;;60.70;22.97;;;18.90;59.10;;;;;;6210703;23;20209;-92
2023/05/15 07:38:38;;;;;;;68.47;23.33;;;18.90;59.10;;;;;;6210350;23;20247;-90
2023/05/15 07:41:06;;;;;;;60.73;23.13;;;18.90;59.10;;;;;;6210265;23;20234;-92
2023/05/15 07:43:33;;;;;;;59.57;21.97;;;18.90;59.10;;;;;;6210333;23;20276;-94
2023/05/15 07:46:00;;;;;;;63.67;20.57;;;18.90;59.10;;;;;;6211019;23;20613;-93
2023/05/15 07:48:27;;;;;;;62.90;22.67;;;18.90;59.10;;;;;;6209488;23;20167;-88
2023/05/15 07:50:55;;;;;;;65.77;22.40;;;18.90;59.10;;;;;;6209410;23;20235;-93
2023/05/15 07:53:23;;;;;;;59.40;21.80;;;18.90;59.10;;;;;;6209967;23;20223;-92
2023/05/15 07:55:50;;;;;;;57.57;21.33;;;18.90;59.10;;;;;;6210733;23;20207;-91
2023/05/15 07:58:18;;;;;;;58.17;21.17;;;18.90;59.10;;;;;;6210634;23;20186;-92
2023/05/15 08:00:45;;;;;;;59.63;20.90;;;18.90;59.10;;;;;;6210628;23;20175;-92
2023/05/15 08:03:12;;;;;;;71.40;21.37;;;18.90;59.10;;;;;;6210910;23;20491;-93
2023/05/15 08:05:39;;;;;;;77.17;22.10;;;18.90;59.10;;;;;;6210217;23;20176;-90
2023/05/15 08:08:06;;;;;;;59.03;20.73;;;18.90;59.10;;;;;;6210710;23;20164;-93
2023/05/15 08:10:36;;;;;;;64.07;21.30;;;18.90;59.10;;;;;;6210753;23;20633;-93
2023/05/15 08:13:04;;;;;;;63.23;20.33;;;18.90;59.10;;;;;;6209799;23;20223;-92
2023/05/15 08:15:32;;;;;;;60.87;21.17;;;18.90;59.10;;;;;;6209422;23;20203;-95
2023/05/15 08:17:59;;;;;;;56.63;20.47;;;19.00;59.20;;;;;;6210333;23;20226;-92
2023/05/15 08:20:26;;;;;;;64.80;21.60;;;19.00;59.20;;;;;;6210117;23;20227;-91
2023/05/15 08:22:53;;;;;;;56.73;20.20;;;18.90;59.10;;;;;;6210139;23;20499;-93
2023/05/15 08:25:21;;;;;;;57.07;20.43;;;19.00;59.20;;;;;;6210657;23;20190;-93
2023/05/15 08:27:48;;;;;;;61.73;19.70;;;19.00;59.20;;;;;;6210343;23;20187;-89
2023/05/15 08:30:15;;;;;;;53.13;19.70;;;19.00;59.20;;;;;;6209737;23;20643;-94
2023/05/15 08:32:44;;;;;;;64.97;19.97;;;19.00;59.20;;;;;;6210179;23;20239;-90
2023/05/15 08:35:11;;;;;;;42.90;18.80;;;19.00;59.80;;;;;;6210123;23;20172;-88
2023/05/15 08:37:38;;;;;;;49.07;19.00;;;19.00;59.20;;;;;;6210191;23;20165;-93
2023/05/15 08:40:06;;;;;;;43.90;17.93;;;19.00;59.20;;;;;;6209400;23;20176;-90
2023/05/15 08:42:42;;;;;;;47.43;18.50;;;19.00;59.20;;;;;;6210644;23;20210;-91
2023/05/15 08:45:11;;;;;;;49.93;19.33;;;19.00;59.20;;;;;;6227653;23;20186;-94
2023/05/15 08:47:40;;;;;;;55.10;19.57;;;19.00;59.20;;;;;;6235099;23;20158;-91
2023/05/15 08:50:11;;;;;;;50.43;19.20;;;19.00;59.20;;;;;;6219611;23;20254;-92
2023/05/15 08:52:42;;;;;;;49.20;20.30;;;19.10;59.30;;;;;;6212288;23;20202;-92
2023/05/15 08:55:11;;;;;;;40.50;17.70;;;19.00;59.20;;;;;;6211918;23;20168;-92
2023/05/15 08:57:38;;;;;;;36.67;17.97;;;19.10;59.30;;;;;;6213061;23;20164;-93
2023/05/15 09:00:07;;;;;;;38.47;17.87;;;19.10;59.30;;;;;;6212245;23;20515;-93
2023/05/15 09:02:35;;;;;;;46.30;19.03;;;19.10;59.30;;;;;;6211854;23;20182;-93
2023/05/15 09:05:10;;;;;;;51.53;18.20;;;19.10;59.30;;;;;;6210274;23;20605;-92
2023/05/15 09:07:39;;;;;;;47.90;17.77;;;19.10;59.30;;;;;;6210371;23;20186;-92
2023/05/15 09:12:55;;;;;;;56.70;18.13;;;19.10;59.20;;;;;;6116074;23;20733;-92
2023/05/15 09:15:25;;;;;;;54.90;17.73;;;19.10;59.30;;;;;;6210175;23;20207;-91
2023/05/15 09:17:52;;;;;;;59.53;19.00;;;19.10;59.20;;;;;;6211494;23;20175;-91
2023/05/15 09:20:29;;;;;;;56.47;19.10;;;19.10;59.60;;;;;;6211034;23;20172;-91
2023/05/15 09:22:56;;;;;;;56.67;18.27;;;19.10;59.30;;;;;;6210804;23;20168;-91
2023/05/15 09:25:36;;;;;;;57.60;18.60;;;19.10;59.30;;;;;;6211092;23;20226;-90
2023/05/15 09:28:03;;;;;;;59.23;18.63;;;19.10;59.30;;;;;;6211065;23;20168;-91
2023/05/15 09:30:30;;;;;;;56.10;17.87;;;19.10;59.30;;;;;;6210705;23;20199;-89
2023/05/15 09:33:00;;;;;;;60.53;18.73;;;19.10;59.30;;;;;;6211004;23;20288;-93
2023/05/15 09:35:35;;;;;;;60.67;18.53;;;19.10;59.30;;;;;;6211020;23;20168;-95
2023/05/15 09:38:04;;;;;;;60.17;18.37;;;19.10;59.20;;;;;;6211325;23;20167;-90
2023/05/15 09:40:32;;;;;;;58.17;18.20;;;19.10;59.30;;;;;;6210967;23;20176;-90
2023/05/15 09:42:59;;;;;;;49.87;16.13;;;19.10;59.30;;;;;;6211936;23;20641;-93
2023/05/15 09:45:28;;;;;;;55.87;18.17;;;19.10;59.50;;;;;;6210894;23;20250;-89
2023/05/15 09:47:56;;;;;;;72.77;18.33;;;19.10;59.30;;;;;;6210533;23;20184;-91
2023/05/15 09:50:25;;;;;;;52.10;16.90;;;19.10;59.30;;;;;;6210590;23;20203;-91
2023/05/15 09:52:53;;;;;;;54.67;17.87;;;19.20;59.30;;;;;;6211285;23;20194;-90
2023/05/15 09:55:22;;;;;;;50.90;16.20;;;19.20;59.30;;;;;;6210446;23;20172;-90
2023/05/15 09:58:05;;;;;;;50.63;16.37;;;19.10;59.30;;;;;;6211181;23;20175;-89
2023/05/15 10:00:32;;;;;;;56.03;16.90;;;19.10;59.30;;;;;;6206779;23;20214;-91
2023/05/15 10:03:01;;;;;;;47.20;15.63;;;19.20;59.30;;;;;;6210469;23;20238;-89
2023/05/15 10:05:29;;;;;;;54.43;16.33;;;19.20;59.30;;;;;;6210604;23;20210;-89
2023/05/15 10:07:59;;;;;;;51.80;16.27;;;19.20;59.30;;;;;;6210840;23;20168;-89
2023/05/15 10:10:27;;;;;;;52.00;15.20;;;19.10;59.30;;;;;;6210408;23;20997;-90
2023/05/15 10:12:57;;;;;;;44.40;14.17;;;19.20;59.30;;;;;;6210548;23;20188;-90
2023/05/15 10:15:24;;;;;;;52.70;15.40;;;19.20;59.40;;;;;;6210350;23;20316;-91
2023/05/15 10:17:53;;;;;;;56.47;13.17;;;19.10;59.30;;;;;;6210719;23;20172;-90
2023/05/15 10:20:21;;;;;;;49.30;12.83;;;19.20;59.40;;;;;;6210679;23;20164;-93
2023/05/15 10:22:50;;;;;;;39.53;12.57;;;19.20;59.40;;;;;;6210472;23;20206;-89
2023/05/15 10:25:26;;;;;;;49.30;11.73;;;19.20;59.30;;;;;;6210158;23;20552;-89
2023/05/15 10:27:54;;;;;;;43.30;11.30;;;19.20;59.40;;;;;;6210121;23;20612;-90
2023/05/15 10:30:22;;;;;;;47.97;11.60;;;19.20;59.40;;;;;;6209218;23;20295;-90
2023/05/15 10:32:50;;;;;;;43.67;11.27;;;19.20;59.40;;;;;;6209628;23;20500;-90
2023/05/15 10:35:18;;;;;;;43.47;10.03;;;19.20;59.30;;;;;;6210048;23;20228;-88
2023/05/15 10:37:46;;;;;;;41.20;10.00;;;19.20;59.30;;;;;;6210134;23;20168;-89
2023/05/15 10:40:15;;;;;;;40.70;9.83;;;19.20;59.30;;;;;;6209927;23;20497;-89
2023/05/15 10:42:45;;;;;;;33.07;9.13;;;19.20;59.30;;;;;;6210044;23;20245;-88
2023/05/15 10:45:13;;;;;;;45.97;10.13;;;19.20;59.30;;;;;;6209678;23;20173;-89
2023/05/15 10:47:42;;;;;;;51.33;10.03;;;19.20;59.30;;;;;;6209406;23;20204;-89
2023/05/15 10:50:11;;;;;;;44.87;9.60;;;19.10;59.30;;;;;;6210295;23;20164;-91
2023/05/15 10:52:39;;;;;;;44.17;9.80;;;19.20;59.30;;;;;;6210433;23;20687;-90
2023/05/15 10:55:07;;;;;;;39.87;9.13;;;19.20;59.30;;;;;;6210613;23;20569;-91
2023/05/15 10:57:35;;;;;;;44.03;9.07;;;19.20;59.30;;;;;;6210638;23;20621;-94
2023/05/15 11:00:26;;;;;;;45.30;9.00;;;19.20;59.80;;;;;;6210427;23;20176;-90
2023/05/15 11:02:55;;;;;;;35.17;8.10;;;19.20;59.40;;;;;;6210003;23;20675;-89
2023/05/15 11:05:23;;;;;;;44.00;8.80;;;19.20;59.30;;;;;;6210513;23;20169;-91
2023/05/15 11:08:26;;;;;;;46.10;8.77;;;19.20;59.30;;;;;;6210145;23;20536;-91
2023/05/15 11:10:53;;;;;;;45.47;8.93;;;19.20;59.30;;;;;;6210014;23;20180;-89
2023/05/15 11:13:20;;;;;;;34.40;8.53;;;19.20;59.30;;;;;;6209717;23;20200;-90
2023/05/15 11:15:49;;;;;;;42.17;7.87;;;19.20;59.30;;;;;;6208993;23;20527;-90
2023/05/15 11:18:16;;;;;;;35.77;7.37;;;19.20;59.40;;;;;;6209309;23;20196;-90
2023/05/15 11:21:07;;;;;;;43.27;7.53;;;19.20;59.30;;;;;;6210320;23;20215;-89
2023/05/15 11:23:41;;;;;;;39.90;7.77;;;19.20;59.40;;;;;;6211017;23;20175;-93
2023/05/15 11:26:08;;;;;;;33.27;7.47;;;19.20;59.30;;;;;;6209589;23;20173;-94
2023/05/15 11:28:43;;;;;;;37.47;6.67;;;19.20;59.30;;;;;;6209952;23;20187;-93
2023/05/15 11:31:12;;;;;;;31.97;6.87;;;19.20;59.30;;;;;;6210171;23;20245;-90
2023/05/15 11:33:40;;;;;;;38.53;7.47;;;19.20;59.40;;;;;;6182985;23;20208;-91
2023/05/15 11:36:08;;;;;;;39.97;7.27;;;19.20;59.40;;;;;;6209682;23;20624;-89
2023/05/15 11:38:39;;;;;;;48.13;8.20;;;19.20;59.40;;;;;;6210401;23;20168;-95
2023/05/15 11:41:18;;;;;;;37.97;7.23;;;19.20;59.30;;;;;;6209690;23;20186;-90
2023/05/15 11:43:46;;;;;;;40.80;7.07;;;19.20;59.30;;;;;;6209626;23;20254;-90
2023/05/15 11:46:14;;;;;;;39.23;7.30;;;19.20;59.30;;;;;;6209897;23;20196;-89
2023/05/15 11:48:46;;;;;;;37.87;7.27;;;19.20;59.30;;;;;;6209599;23;20199;-93
2023/05/15 11:51:17;;;;;;;38.37;7.33;;;19.20;59.30;;;;;;6210922;23;20250;-91
2023/05/15 11:53:45;;;;;;;33.37;6.30;;;19.20;59.30;;;;;;6209921;23;20220;-92
2023/05/15 11:56:18;;;;;;;31.17;6.30;;;19.20;59.30;;;;;;6210315;23;20207;-93
2023/05/15 11:58:48;;;;;;;35.63;6.93;;;19.20;59.40;;;;;;6209820;23;20196;-92
2023/05/15 12:01:17;;;;;;;36.03;7.27;;;19.20;59.30;;;;;;6210332;23;20171;-93
2023/05/15 12:03:47;;;;;;;50.67;8.13;;;19.20;59.30;;;;;;6210443;23;20199;-91
2023/05/15 12:06:14;;;;;;;36.70;7.07;;;19.20;59.30;;;;;;6210411;23;20192;-93
2023/05/15 12:08:42;;;;;;;36.83;6.63;;;19.20;59.40;;;;;;6210029;23;20176;-89
2023/05/15 12:11:10;;;;;;;34.80;6.70;;;19.20;59.40;;;;;;6209931;23;20251;-90
2023/05/15 12:13:37;;;;;;;42.07;6.80;;;19.10;59.30;;;;;;6209741;23;20334;-94
2023/05/15 12:16:05;;;;;;;37.43;6.83;;;19.10;59.30;;;;;;6210183;23;20200;-91
2023/05/15 12:18:34;;;;;;;42.53;7.60;;;19.20;59.30;;;;;;6217152;23;20214;-90
2023/05/15 12:21:03;;;;;;;32.13;6.37;;;19.20;59.40;;;;;;6224133;23;20407;-89
2023/05/15 12:23:32;;;;;;;40.50;7.20;;;19.10;59.30;;;;;;6226681;23;20228;-90
2023/05/15 12:26:02;;;;;;;33.23;6.57;;;19.20;59.40;;;;;;6221913;23;20168;-89
2023/05/15 12:28:30;;;;;;;40.60;7.43;;;19.10;59.30;;;;;;6219978;23;20496;-90
2023/05/15 12:30:58;;;;;;;26.77;5.53;;;19.20;59.40;;;;;;6213832;23;20286;-89
2023/05/15 12:33:26;;;;;;;27.27;6.10;;;19.10;59.30;;;;;;6217215;23;20192;-90
2023/05/15 12:35:56;;;;;;;38.53;7.03;;;19.10;59.30;;;;;;6212920;23;20597;-89
2023/05/15 12:38:24;;;;;;;37.10;7.03;;;19.20;59.40;;;;;;6210796;23;20637;-89